sensor_id;sensor_type;location;lat;lon;timestamp;temperature;humidity
7296;DHT22;40758;54.038;11.684;2022-10-28T00:00:06;15.70;99.90
7296;DHT22;40758;54.038;11.684;2022-10-28T00:02:35;15.70;99.90
7296;DHT22;40758;54.038;11.684;2022-10-28T00:05:08;15.70;99.90
7296;DHT22;40758;54.038;11.684;2022-10-28T00:07:37;15.70;99.90
7296;DHT22;40758;54.038;11.684;2022-10-28T00:10:07;15.70;99.90
7296;DHT22;40758;54.038;11.684;2022-10-28T00:12:37;15.70;99.90
7296;DHT22;40758;54.038;11.684;2022-10-28T00:15:07;15.70;99.90
7296;DHT22;40758;54.038;11.684;2022-10-28T00:17:36;15.70;99.90
7296;DHT22;40758;54.038;11.684;2022-10-28T00:20:08;15.70;99.90
7296;DHT22;40758;54.038;11.684;2022-10-28T00:22:37;15.70;99.90
7296;DHT22;40758;54.038;11.684;2022-10-28T00:25:07;15.70;99.90
7296;DHT22;40758;54.038;11.684;2022-10-28T00:27:37;15.70;99.90
7296;DHT22;40758;54.038;11.684;2022-10-28T00:30:07;15.80;99.90
7296;DHT22;40758;54.038;11.684;2022-10-28T00:32:36;15.80;99.90
7296;DHT22;40758;54.038;11.684;2022-10-28T00:35:08;15.90;99.90
7296;DHT22;40758;54.038;11.684;2022-10-28T00:37:37;15.90;99.90
7296;DHT22;40758;54.038;11.684;2022-10-28T00:40:07;15.80;99.90
7296;DHT22;40758;54.038;11.684;2022-10-28T00:42:37;15.80;99.90
7296;DHT22;40758;54.038;11.684;2022-10-28T00:45:07;15.80;99.90
7296;DHT22;40758;54.038;11.684;2022-10-28T00:47:41;15.80;99.90
7296;DHT22;40758;54.038;11.684;2022-10-28T00:50:32;15.80;99.90
7296;DHT22;40758;54.038;11.684;2022-10-28T00:53:14;15.80;99.90
7296;DHT22;40758;54.038;11.684;2022-10-28T00:55:46;15.70;99.90
7296;DHT22;40758;54.038;11.684;2022-10-28T00:58:18;15.70;99.90
7296;DHT22;40758;54.038;11.684;2022-10-28T01:00:50;15.80;99.90
7296;DHT22;40758;54.038;11.684;2022-10-28T01:03:19;15.70;99.90
7296;DHT22;40758;54.038;11.684;2022-10-28T01:05:49;15.60;99.90
7296;DHT22;40758;54.038;11.684;2022-10-28T01:08:20;15.50;99.90
7296;DHT22;40758;54.038;11.684;2022-10-28T01:11:19;15.60;99.90
7296;DHT22;40758;54.038;11.684;2022-10-28T01:17:26;15.70;99.90
7296;DHT22;40758;54.038;11.684;2022-10-28T01:20:38;15.70;99.90
7296;DHT22;40758;54.038;11.684;2022-10-28T01:23:42;15.60;99.90
7296;DHT22;40758;54.038;11.684;2022-10-28T01:26:52;15.60;99.90
7296;DHT22;40758;54.038;11.684;2022-10-28T01:30:02;15.50;99.90
7296;DHT22;40758;54.038;11.684;2022-10-28T01:35:36;15.40;99.90
7296;DHT22;40758;54.038;11.684;2022-10-28T01:38:24;15.50;99.90
7296;DHT22;40758;54.038;11.684;2022-10-28T01:41:05;15.50;99.90
7296;DHT22;40758;54.038;11.684;2022-10-28T01:43:45;15.50;99.90
7296;DHT22;40758;54.038;11.684;2022-10-28T01:46:24;15.50;99.90
7296;DHT22;40758;54.038;11.684;2022-10-28T01:49:03;15.50;99.90
7296;DHT22;40758;54.038;11.684;2022-10-28T01:51:41;15.40;99.90
7296;DHT22;40758;54.038;11.684;2022-10-28T01:54:16;15.40;99.90
7296;DHT22;40758;54.038;11.684;2022-10-28T01:56:48;15.40;99.90
7296;DHT22;40758;54.038;11.684;2022-10-28T01:59:20;15.40;99.90
7296;DHT22;40758;54.038;11.684;2022-10-28T02:01:51;15.40;99.90
7296;DHT22;40758;54.038;11.684;2022-10-28T02:04:23;15.40;99.90
7296;DHT22;40758;54.038;11.684;2022-10-28T02:06:54;15.30;99.90
7296;DHT22;40758;54.038;11.684;2022-10-28T02:09:35;15.30;99.90
7296;DHT22;40758;54.038;11.684;2022-10-28T02:12:26;15.30;99.90
7296;DHT22;40758;54.038;11.684;2022-10-28T02:15:24;15.40;99.90
7296;DHT22;40758;54.038;11.684;2022-10-28T02:18:19;15.40;99.90
7296;DHT22;40758;54.038;11.684;2022-10-28T02:20:58;15.40;99.90
7296;DHT22;40758;54.038;11.684;2022-10-28T02:23:39;15.40;99.90
7296;DHT22;40758;54.038;11.684;2022-10-28T02:26:25;15.40;99.90
7296;DHT22;40758;54.038;11.684;2022-10-28T02:29:05;15.40;99.90
7296;DHT22;40758;54.038;11.684;2022-10-28T02:31:45;15.40;99.90
7296;DHT22;40758;54.038;11.684;2022-10-28T02:34:22;15.40;99.90
7296;DHT22;40758;54.038;11.684;2022-10-28T02:36:58;15.40;99.90
7296;DHT22;40758;54.038;11.684;2022-10-28T02:39:34;15.30;99.90
7296;DHT22;40758;54.038;11.684;2022-10-28T02:42:12;15.30;99.90
7296;DHT22;40758;54.038;11.684;2022-10-28T02:44:48;15.20;99.90
7296;DHT22;40758;54.038;11.684;2022-10-28T02:47:24;15.20;99.90
7296;DHT22;40758;54.038;11.684;2022-10-28T02:49:59;15.10;99.90
7296;DHT22;40758;54.038;11.684;2022-10-28T02:52:34;15.20;99.90
7296;DHT22;40758;54.038;11.684;2022-10-28T02:55:05;15.20;99.90
7296;DHT22;40758;54.038;11.684;2022-10-28T02:57:37;15.10;99.90
7296;DHT22;40758;54.038;11.684;2022-10-28T03:00:16;15.20;99.90
7296;DHT22;40758;54.038;11.684;2022-10-28T03:02:47;15.20;99.90
7296;DHT22;40758;54.038;11.684;2022-10-28T03:05:16;15.20;99.90
7296;DHT22;40758;54.038;11.684;2022-10-28T03:07:47;15.30;99.90
7296;DHT22;40758;54.038;11.684;2022-10-28T03:10:17;15.30;99.90
7296;DHT22;40758;54.038;11.684;2022-10-28T03:12:46;15.30;99.90
7296;DHT22;40758;54.038;11.684;2022-10-28T03:15:15;15.30;99.90
7296;DHT22;40758;54.038;11.684;2022-10-28T03:17:44;15.40;99.90
7296;DHT22;40758;54.038;11.684;2022-10-28T03:20:13;15.50;99.90
7296;DHT22;40758;54.038;11.684;2022-10-28T03:22:43;15.40;99.90
7296;DHT22;40758;54.038;11.684;2022-10-28T03:25:13;15.30;99.90
7296;DHT22;40758;54.038;11.684;2022-10-28T03:27:42;15.30;99.90
7296;DHT22;40758;54.038;11.684;2022-10-28T03:30:11;15.30;99.90
7296;DHT22;40758;54.038;11.684;2022-10-28T03:32:41;15.30;99.90
7296;DHT22;40758;54.038;11.684;2022-10-28T03:35:10;15.30;99.90
7296;DHT22;40758;54.038;11.684;2022-10-28T03:37:40;15.30;99.90
7296;DHT22;40758;54.038;11.684;2022-10-28T03:40:11;15.20;99.90
7296;DHT22;40758;54.038;11.684;2022-10-28T03:42:41;15.30;99.90
7296;DHT22;40758;54.038;11.684;2022-10-28T03:45:10;15.40;99.90
7296;DHT22;40758;54.038;11.684;2022-10-28T03:47:39;15.30;99.90
7296;DHT22;40758;54.038;11.684;2022-10-28T03:50:09;15.30;99.90
7296;DHT22;40758;54.038;11.684;2022-10-28T03:52:38;15.20;99.90
7296;DHT22;40758;54.038;11.684;2022-10-28T03:55:08;15.20;99.90
7296;DHT22;40758;54.038;11.684;2022-10-28T03:57:40;15.10;99.90
7296;DHT22;40758;54.038;11.684;2022-10-28T04:00:12;15.10;99.90
7296;DHT22;40758;54.038;11.684;2022-10-28T04:02:44;15.00;99.90
7296;DHT22;40758;54.038;11.684;2022-10-28T04:05:18;15.00;99.90
7296;DHT22;40758;54.038;11.684;2022-10-28T04:07:47;15.00;99.90
7296;DHT22;40758;54.038;11.684;2022-10-28T04:10:16;15.00;99.90
7296;DHT22;40758;54.038;11.684;2022-10-28T04:12:48;15.10;99.90
7296;DHT22;40758;54.038;11.684;2022-10-28T04:15:18;15.20;99.90
7296;DHT22;40758;54.038;11.684;2022-10-28T04:17:48;15.20;99.90
7296;DHT22;40758;54.038;11.684;2022-10-28T04:20:17;15.20;99.90
7296;DHT22;40758;54.038;11.684;2022-10-28T04:22:46;15.20;99.90
7296;DHT22;40758;54.038;11.684;2022-10-28T04:25:23;15.30;99.90
7296;DHT22;40758;54.038;11.684;2022-10-28T04:27:54;15.30;99.90
7296;DHT22;40758;54.038;11.684;2022-10-28T04:30:24;15.30;99.90
7296;DHT22;40758;54.038;11.684;2022-10-28T04:32:53;15.30;99.90
7296;DHT22;40758;54.038;11.684;2022-10-28T04:35:22;15.40;99.90
7296;DHT22;40758;54.038;11.684;2022-10-28T04:37:52;15.40;99.90
7296;DHT22;40758;54.038;11.684;2022-10-28T04:40:21;15.20;99.90
7296;DHT22;40758;54.038;11.684;2022-10-28T04:42:51;15.20;99.90
7296;DHT22;40758;54.038;11.684;2022-10-28T04:45:26;15.10;99.90
7296;DHT22;40758;54.038;11.684;2022-10-28T04:47:57;15.10;99.90
7296;DHT22;40758;54.038;11.684;2022-10-28T04:50:31;15.10;99.90
7296;DHT22;40758;54.038;11.684;2022-10-28T04:53:00;15.10;99.90
7296;DHT22;40758;54.038;11.684;2022-10-28T04:55:30;15.00;99.90
7296;DHT22;40758;54.038;11.684;2022-10-28T04:58:00;14.90;99.90
7296;DHT22;40758;54.038;11.684;2022-10-28T05:00:31;14.80;99.90
7296;DHT22;40758;54.038;11.684;2022-10-28T05:03:01;14.80;99.90
7296;DHT22;40758;54.038;11.684;2022-10-28T05:05:30;14.70;99.90
7296;DHT22;40758;54.038;11.684;2022-10-28T05:07:59;14.70;99.90
7296;DHT22;40758;54.038;11.684;2022-10-28T05:10:29;14.70;99.90
7296;DHT22;40758;54.038;11.684;2022-10-28T05:12:58;14.70;99.90
7296;DHT22;40758;54.038;11.684;2022-10-28T05:15:27;14.70;99.90
7296;DHT22;40758;54.038;11.684;2022-10-28T05:17:58;14.70;99.90
7296;DHT22;40758;54.038;11.684;2022-10-28T05:20:28;14.70;99.90
7296;DHT22;40758;54.038;11.684;2022-10-28T05:22:59;14.70;99.90
7296;DHT22;40758;54.038;11.684;2022-10-28T05:25:28;14.70;99.90
7296;DHT22;40758;54.038;11.684;2022-10-28T05:27:58;14.50;99.90
7296;DHT22;40758;54.038;11.684;2022-10-28T05:30:28;14.40;99.90
7296;DHT22;40758;54.038;11.684;2022-10-28T05:33:01;14.30;99.90
7296;DHT22;40758;54.038;11.684;2022-10-28T05:35:31;14.20;99.90
7296;DHT22;40758;54.038;11.684;2022-10-28T05:38:01;14.20;99.90
7296;DHT22;40758;54.038;11.684;2022-10-28T05:40:31;14.20;99.90
7296;DHT22;40758;54.038;11.684;2022-10-28T05:43:00;14.50;99.90
7296;DHT22;40758;54.038;11.684;2022-10-28T05:45:39;14.60;99.90
7296;DHT22;40758;54.038;11.684;2022-10-28T05:48:27;14.70;99.90
7296;DHT22;40758;54.038;11.684;2022-10-28T05:50:58;14.80;99.90
7296;DHT22;40758;54.038;11.684;2022-10-28T05:53:31;14.80;99.90
7296;DHT22;40758;54.038;11.684;2022-10-28T05:56:02;14.90;99.90
7296;DHT22;40758;54.038;11.684;2022-10-28T05:58:34;14.90;99.90
7296;DHT22;40758;54.038;11.684;2022-10-28T06:01:06;15.00;99.90
7296;DHT22;40758;54.038;11.684;2022-10-28T06:03:40;15.10;99.90
7296;DHT22;40758;54.038;11.684;2022-10-28T06:06:12;15.10;99.90
7296;DHT22;40758;54.038;11.684;2022-10-28T06:08:44;15.10;99.90
7296;DHT22;40758;54.038;11.684;2022-10-28T06:11:15;15.10;99.90
7296;DHT22;40758;54.038;11.684;2022-10-28T06:13:54;15.10;99.90
7296;DHT22;40758;54.038;11.684;2022-10-28T06:16:37;15.10;99.90
7296;DHT22;40758;54.038;11.684;2022-10-28T06:19:21;15.10;99.90
7296;DHT22;40758;54.038;11.684;2022-10-28T06:22:00;15.10;99.90
7296;DHT22;40758;54.038;11.684;2022-10-28T06:24:30;15.10;99.90
7296;DHT22;40758;54.038;11.684;2022-10-28T06:27:02;15.10;99.90
7296;DHT22;40758;54.038;11.684;2022-10-28T06:29:36;15.20;99.90
7296;DHT22;40758;54.038;11.684;2022-10-28T06:32:08;15.30;99.90
7296;DHT22;40758;54.038;11.684;2022-10-28T06:34:44;15.30;99.90
7296;DHT22;40758;54.038;11.684;2022-10-28T06:37:16;15.40;99.90
7296;DHT22;40758;54.038;11.684;2022-10-28T06:39:51;15.50;99.90
7296;DHT22;40758;54.038;11.684;2022-10-28T06:42:22;15.50;99.90
7296;DHT22;40758;54.038;11.684;2022-10-28T06:44:57;15.50;99.90
7296;DHT22;40758;54.038;11.684;2022-10-28T06:47:58;15.50;99.90
7296;DHT22;40758;54.038;11.684;2022-10-28T06:50:35;15.50;99.90
7296;DHT22;40758;54.038;11.684;2022-10-28T06:53:05;15.50;99.90
7296;DHT22;40758;54.038;11.684;2022-10-28T06:55:34;15.50;99.90
7296;DHT22;40758;54.038;11.684;2022-10-28T06:58:03;15.60;99.90
7296;DHT22;40758;54.038;11.684;2022-10-28T07:00:33;15.60;99.90
7296;DHT22;40758;54.038;11.684;2022-10-28T07:03:05;15.70;99.90
7296;DHT22;40758;54.038;11.684;2022-10-28T07:05:36;15.70;99.90
7296;DHT22;40758;54.038;11.684;2022-10-28T07:08:05;15.70;99.90
7296;DHT22;40758;54.038;11.684;2022-10-28T07:10:34;15.80;99.90
7296;DHT22;40758;54.038;11.684;2022-10-28T07:13:03;15.90;99.90
7296;DHT22;40758;54.038;11.684;2022-10-28T07:15:33;16.10;99.90
7296;DHT22;40758;54.038;11.684;2022-10-28T07:18:02;16.20;99.90
7296;DHT22;40758;54.038;11.684;2022-10-28T07:20:32;16.30;99.90
7296;DHT22;40758;54.038;11.684;2022-10-28T07:23:02;16.40;99.90
7296;DHT22;40758;54.038;11.684;2022-10-28T07:25:32;16.50;99.90
7296;DHT22;40758;54.038;11.684;2022-10-28T07:28:02;16.60;99.90
7296;DHT22;40758;54.038;11.684;2022-10-28T07:30:32;16.70;99.90
7296;DHT22;40758;54.038;11.684;2022-10-28T07:33:03;16.80;99.90
7296;DHT22;40758;54.038;11.684;2022-10-28T07:35:33;17.10;99.90
7296;DHT22;40758;54.038;11.684;2022-10-28T07:38:04;17.40;99.90
7296;DHT22;40758;54.038;11.684;2022-10-28T07:40:34;17.70;99.90
7296;DHT22;40758;54.038;11.684;2022-10-28T07:43:03;18.10;99.90
7296;DHT22;40758;54.038;11.684;2022-10-28T07:45:33;18.50;99.90
7296;DHT22;40758;54.038;11.684;2022-10-28T07:48:03;18.60;99.90
7296;DHT22;40758;54.038;11.684;2022-10-28T07:50:33;18.50;99.90
7296;DHT22;40758;54.038;11.684;2022-10-28T07:53:04;18.80;99.90
7296;DHT22;40758;54.038;11.684;2022-10-28T07:55:33;18.80;99.90
7296;DHT22;40758;54.038;11.684;2022-10-28T07:58:02;18.70;99.90
7296;DHT22;40758;54.038;11.684;2022-10-28T08:00:32;18.60;99.90
7296;DHT22;40758;54.038;11.684;2022-10-28T08:03:01;18.50;99.90
7296;DHT22;40758;54.038;11.684;2022-10-28T08:05:31;18.40;99.90
7296;DHT22;40758;54.038;11.684;2022-10-28T08:08:04;18.30;99.90
7296;DHT22;40758;54.038;11.684;2022-10-28T08:10:33;18.10;99.90
7296;DHT22;40758;54.038;11.684;2022-10-28T08:13:02;18.00;99.90
7296;DHT22;40758;54.038;11.684;2022-10-28T08:15:33;17.90;99.90
7296;DHT22;40758;54.038;11.684;2022-10-28T08:18:02;17.90;99.90
7296;DHT22;40758;54.038;11.684;2022-10-28T08:20:31;17.80;99.90
7296;DHT22;40758;54.038;11.684;2022-10-28T08:23:01;17.90;99.90
7296;DHT22;40758;54.038;11.684;2022-10-28T08:25:35;17.80;99.90
7296;DHT22;40758;54.038;11.684;2022-10-28T08:28:05;17.80;99.90
7296;DHT22;40758;54.038;11.684;2022-10-28T08:30:34;17.80;99.90
7296;DHT22;40758;54.038;11.684;2022-10-28T08:33:23;17.80;99.90
7296;DHT22;40758;54.038;11.684;2022-10-28T08:35:52;17.70;99.90
7296;DHT22;40758;54.038;11.684;2022-10-28T08:38:21;17.70;99.90
7296;DHT22;40758;54.038;11.684;2022-10-28T08:40:57;17.70;99.90
7296;DHT22;40758;54.038;11.684;2022-10-28T08:43:42;17.80;99.90
7296;DHT22;40758;54.038;11.684;2022-10-28T08:46:31;18.00;99.90
7296;DHT22;40758;54.038;11.684;2022-10-28T08:49:18;18.30;99.90
7296;DHT22;40758;54.038;11.684;2022-10-28T08:51:56;18.70;99.90
7296;DHT22;40758;54.038;11.684;2022-10-28T08:54:33;18.80;99.90
7296;DHT22;40758;54.038;11.684;2022-10-28T08:57:16;18.90;99.90
7296;DHT22;40758;54.038;11.684;2022-10-28T08:59:50;19.00;99.90
7296;DHT22;40758;54.038;11.684;2022-10-28T09:02:23;19.20;99.90
7296;DHT22;40758;54.038;11.684;2022-10-28T09:04:58;19.30;99.90
7296;DHT22;40758;54.038;11.684;2022-10-28T09:07:33;19.40;99.90
7296;DHT22;40758;54.038;11.684;2022-10-28T09:10:04;19.80;99.90
7296;DHT22;40758;54.038;11.684;2022-10-28T09:12:42;20.60;99.90
7296;DHT22;40758;54.038;11.684;2022-10-28T09:15:29;21.40;99.90
7296;DHT22;40758;54.038;11.684;2022-10-28T09:18:13;22.00;99.90
7296;DHT22;40758;54.038;11.684;2022-10-28T09:20:51;22.50;99.90
7296;DHT22;40758;54.038;11.684;2022-10-28T09:23:28;22.50;99.90
7296;DHT22;40758;54.038;11.684;2022-10-28T09:26:09;22.60;99.90
7296;DHT22;40758;54.038;11.684;2022-10-28T09:28:58;23.00;99.90
7296;DHT22;40758;54.038;11.684;2022-10-28T09:31:40;23.60;99.90
7296;DHT22;40758;54.038;11.684;2022-10-28T09:34:21;23.40;99.90
7296;DHT22;40758;54.038;11.684;2022-10-28T09:37:05;23.20;99.90
7296;DHT22;40758;54.038;11.684;2022-10-28T09:39:42;23.20;99.90
7296;DHT22;40758;54.038;11.684;2022-10-28T09:42:18;23.40;99.90
7296;DHT22;40758;54.038;11.684;2022-10-28T09:44:55;23.10;99.90
7296;DHT22;40758;54.038;11.684;2022-10-28T09:47:31;22.80;99.90
7296;DHT22;40758;54.038;11.684;2022-10-28T09:50:05;22.60;99.90
7296;DHT22;40758;54.038;11.684;2022-10-28T09:52:49;22.40;99.90
7296;DHT22;40758;54.038;11.684;2022-10-28T09:55:26;22.40;99.90
7296;DHT22;40758;54.038;11.684;2022-10-28T09:57:55;22.80;99.90
7296;DHT22;40758;54.038;11.684;2022-10-28T10:00:26;23.20;99.90
7296;DHT22;40758;54.038;11.684;2022-10-28T10:02:56;23.50;99.90
7296;DHT22;40758;54.038;11.684;2022-10-28T10:05:27;24.10;99.90
7296;DHT22;40758;54.038;11.684;2022-10-28T10:08:02;24.90;99.90
7296;DHT22;40758;54.038;11.684;2022-10-28T10:10:38;24.90;99.90
7296;DHT22;40758;54.038;11.684;2022-10-28T10:13:16;24.50;99.90
7296;DHT22;40758;54.038;11.684;2022-10-28T10:15:53;24.20;99.90
7296;DHT22;40758;54.038;11.684;2022-10-28T10:18:27;23.50;99.90
7296;DHT22;40758;54.038;11.684;2022-10-28T10:21:00;23.90;99.90
7296;DHT22;40758;54.038;11.684;2022-10-28T10:23:31;24.30;99.90
7296;DHT22;40758;54.038;11.684;2022-10-28T10:26:03;24.00;99.90
7296;DHT22;40758;54.038;11.684;2022-10-28T10:28:42;24.30;99.90
7296;DHT22;40758;54.038;11.684;2022-10-28T10:31:18;24.80;99.90
7296;DHT22;40758;54.038;11.684;2022-10-28T10:33:51;24.70;99.90
7296;DHT22;40758;54.038;11.684;2022-10-28T10:36:27;24.10;99.90
7296;DHT22;40758;54.038;11.684;2022-10-28T10:38:58;24.10;99.90
7296;DHT22;40758;54.038;11.684;2022-10-28T10:41:33;24.10;99.90
7296;DHT22;40758;54.038;11.684;2022-10-28T10:44:32;24.30;99.90
7296;DHT22;40758;54.038;11.684;2022-10-28T10:47:31;25.20;99.90
7296;DHT22;40758;54.038;11.684;2022-10-28T10:50:19;26.00;99.90
7296;DHT22;40758;54.038;11.684;2022-10-28T10:52:55;25.80;99.90
7296;DHT22;40758;54.038;11.684;2022-10-28T10:55:32;25.40;99.90
7296;DHT22;40758;54.038;11.684;2022-10-28T10:58:15;25.80;99.90
7296;DHT22;40758;54.038;11.684;2022-10-28T11:00:51;25.20;99.90
7296;DHT22;40758;54.038;11.684;2022-10-28T11:03:27;24.20;99.90
7296;DHT22;40758;54.038;11.684;2022-10-28T11:06:02;24.20;99.90
7296;DHT22;40758;54.038;11.684;2022-10-28T11:08:54;24.30;99.90
7296;DHT22;40758;54.038;11.684;2022-10-28T11:11:34;24.50;99.90
7296;DHT22;40758;54.038;11.684;2022-10-28T11:14:05;24.40;99.90
7296;DHT22;40758;54.038;11.684;2022-10-28T11:16:47;24.20;99.90
7296;DHT22;40758;54.038;11.684;2022-10-28T11:19:23;24.50;99.90
7296;DHT22;40758;54.038;11.684;2022-10-28T11:22:11;24.40;99.90
7296;DHT22;40758;54.038;11.684;2022-10-28T11:25:17;24.80;99.90
7296;DHT22;40758;54.038;11.684;2022-10-28T11:28:27;24.80;99.90
7296;DHT22;40758;54.038;11.684;2022-10-28T11:34:51;24.60;99.90
7296;DHT22;40758;54.038;11.684;2022-10-28T11:37:40;23.90;99.90
7296;DHT22;40758;54.038;11.684;2022-10-28T11:40:26;24.30;99.90
7296;DHT22;40758;54.038;11.684;2022-10-28T11:43:12;24.30;99.90
7296;DHT22;40758;54.038;11.684;2022-10-28T11:45:58;24.40;99.90
7296;DHT22;40758;54.038;11.684;2022-10-28T11:48:43;25.20;99.90
7296;DHT22;40758;54.038;11.684;2022-10-28T11:51:33;25.40;99.90
7296;DHT22;40758;54.038;11.684;2022-10-28T11:54:27;25.40;99.90
7296;DHT22;40758;54.038;11.684;2022-10-28T11:57:13;25.50;99.90
7296;DHT22;40758;54.038;11.684;2022-10-28T12:03:17;25.70;99.90
7296;DHT22;40758;54.038;11.684;2022-10-28T12:06:09;25.40;99.90
7296;DHT22;40758;54.038;11.684;2022-10-28T12:09:02;25.20;99.90
7296;DHT22;40758;54.038;11.684;2022-10-28T12:11:51;25.20;99.90
7296;DHT22;40758;54.038;11.684;2022-10-28T12:14:34;24.90;99.90
7296;DHT22;40758;54.038;11.684;2022-10-28T12:17:16;25.00;99.90
7296;DHT22;40758;54.038;11.684;2022-10-28T12:19:53;24.70;99.90
7296;DHT22;40758;54.038;11.684;2022-10-28T12:22:28;24.70;99.90
7296;DHT22;40758;54.038;11.684;2022-10-28T12:25:07;25.00;99.90
7296;DHT22;40758;54.038;11.684;2022-10-28T12:27:46;25.00;99.90
7296;DHT22;40758;54.038;11.684;2022-10-28T12:30:21;24.80;99.90
7296;DHT22;40758;54.038;11.684;2022-10-28T12:32:58;24.50;99.90
7296;DHT22;40758;54.038;11.684;2022-10-28T12:35:31;24.50;99.90
7296;DHT22;40758;54.038;11.684;2022-10-28T12:38:09;24.50;99.90
7296;DHT22;40758;54.038;11.684;2022-10-28T12:40:50;24.50;99.90
7296;DHT22;40758;54.038;11.684;2022-10-28T12:43:30;24.50;99.90
7296;DHT22;40758;54.038;11.684;2022-10-28T12:46:03;24.60;99.90
7296;DHT22;40758;54.038;11.684;2022-10-28T12:48:43;24.20;99.90
7296;DHT22;40758;54.038;11.684;2022-10-28T12:51:22;24.30;99.90
7296;DHT22;40758;54.038;11.684;2022-10-28T12:53:59;24.10;99.90
7296;DHT22;40758;54.038;11.684;2022-10-28T12:56:41;23.90;99.90
7296;DHT22;40758;54.038;11.684;2022-10-28T12:59:19;23.80;99.90
7296;DHT22;40758;54.038;11.684;2022-10-28T13:01:57;23.70;99.90
7296;DHT22;40758;54.038;11.684;2022-10-28T13:04:35;24.00;99.90
7296;DHT22;40758;54.038;11.684;2022-10-28T13:10:31;23.80;99.90
7296;DHT22;40758;54.038;11.684;2022-10-28T13:13:34;24.30;99.90
7296;DHT22;40758;54.038;11.684;2022-10-28T13:16:47;24.50;99.90
7296;DHT22;40758;54.038;11.684;2022-10-28T13:19:42;24.40;99.90
7296;DHT22;40758;54.038;11.684;2022-10-28T13:22:42;24.40;99.90
7296;DHT22;40758;54.038;11.684;2022-10-28T13:25:37;24.40;99.90
7296;DHT22;40758;54.038;11.684;2022-10-28T13:28:19;24.50;99.90
7296;DHT22;40758;54.038;11.684;2022-10-28T13:30:54;24.70;99.90
7296;DHT22;40758;54.038;11.684;2022-10-28T13:33:28;24.80;99.90
7296;DHT22;40758;54.038;11.684;2022-10-28T13:36:14;24.60;99.90
7296;DHT22;40758;54.038;11.684;2022-10-28T13:38:50;24.40;99.90
7296;DHT22;40758;54.038;11.684;2022-10-28T13:41:36;24.40;99.90
7296;DHT22;40758;54.038;11.684;2022-10-28T13:44:24;23.90;99.90
7296;DHT22;40758;54.038;11.684;2022-10-28T13:47:27;23.50;99.90
7296;DHT22;40758;54.038;11.684;2022-10-28T13:50:20;23.30;99.90
7296;DHT22;40758;54.038;11.684;2022-10-28T13:56:28;22.80;99.90
7296;DHT22;40758;54.038;11.684;2022-10-28T13:59:27;22.90;99.90
7296;DHT22;40758;54.038;11.684;2022-10-28T14:02:12;22.90;99.90
7296;DHT22;40758;54.038;11.684;2022-10-28T14:05:07;22.70;99.90
7296;DHT22;40758;54.038;11.684;2022-10-28T14:07:48;22.50;99.90
7296;DHT22;40758;54.038;11.684;2022-10-28T14:10:25;22.30;99.90
7296;DHT22;40758;54.038;11.684;2022-10-28T14:12:59;22.00;99.90
7296;DHT22;40758;54.038;11.684;2022-10-28T14:15:36;21.80;99.90
7296;DHT22;40758;54.038;11.684;2022-10-28T14:18:20;21.70;99.90
7296;DHT22;40758;54.038;11.684;2022-10-28T14:21:11;21.50;99.90
7296;DHT22;40758;54.038;11.684;2022-10-28T14:24:09;21.40;99.90
7296;DHT22;40758;54.038;11.684;2022-10-28T14:30:22;21.10;99.90
7296;DHT22;40758;54.038;11.684;2022-10-28T14:33:20;20.90;99.90
7296;DHT22;40758;54.038;11.684;2022-10-28T14:36:12;20.80;99.90
7296;DHT22;40758;54.038;11.684;2022-10-28T14:39:21;20.70;99.90
7296;DHT22;40758;54.038;11.684;2022-10-28T14:42:17;20.60;99.90
7296;DHT22;40758;54.038;11.684;2022-10-28T14:45:16;20.60;99.90
7296;DHT22;40758;54.038;11.684;2022-10-28T14:51:12;20.40;99.90
7296;DHT22;40758;54.038;11.684;2022-10-28T14:53:45;20.30;99.90
7296;DHT22;40758;54.038;11.684;2022-10-28T14:56:22;20.20;99.90
7296;DHT22;40758;54.038;11.684;2022-10-28T14:59:12;20.10;99.90
7296;DHT22;40758;54.038;11.684;2022-10-28T15:01:58;20.00;99.90
7296;DHT22;40758;54.038;11.684;2022-10-28T15:04:32;19.90;99.90
7296;DHT22;40758;54.038;11.684;2022-10-28T15:07:02;19.80;99.90
7296;DHT22;40758;54.038;11.684;2022-10-28T15:09:33;19.70;99.90
7296;DHT22;40758;54.038;11.684;2022-10-28T15:12:05;19.50;99.90
7296;DHT22;40758;54.038;11.684;2022-10-28T15:14:38;19.40;99.90
7296;DHT22;40758;54.038;11.684;2022-10-28T15:17:13;19.30;99.90
7296;DHT22;40758;54.038;11.684;2022-10-28T15:19:47;19.10;99.90
7296;DHT22;40758;54.038;11.684;2022-10-28T15:22:20;19.00;99.90
7296;DHT22;40758;54.038;11.684;2022-10-28T15:24:58;18.80;99.90
7296;DHT22;40758;54.038;11.684;2022-10-28T15:27:30;18.70;99.90
7296;DHT22;40758;54.038;11.684;2022-10-28T15:30:01;18.60;99.90
7296;DHT22;40758;54.038;11.684;2022-10-28T15:32:32;18.60;99.90
7296;DHT22;40758;54.038;11.684;2022-10-28T15:35:38;18.60;99.90
7296;DHT22;40758;54.038;11.684;2022-10-28T15:38:35;18.60;99.90
7296;DHT22;40758;54.038;11.684;2022-10-28T15:44:25;18.50;99.90
7296;DHT22;40758;54.038;11.684;2022-10-28T15:47:17;18.40;99.90
7296;DHT22;40758;54.038;11.684;2022-10-28T15:50:04;18.50;99.90
7296;DHT22;40758;54.038;11.684;2022-10-28T15:52:53;18.30;99.90
7296;DHT22;40758;54.038;11.684;2022-10-28T15:55:29;18.30;99.90
7296;DHT22;40758;54.038;11.684;2022-10-28T15:58:38;18.20;99.90
7296;DHT22;40758;54.038;11.684;2022-10-28T16:01:10;18.20;99.90
7296;DHT22;40758;54.038;11.684;2022-10-28T16:03:55;18.20;99.90
7296;DHT22;40758;54.038;11.684;2022-10-28T16:06:26;18.10;99.90
7296;DHT22;40758;54.038;11.684;2022-10-28T16:09:05;17.90;99.90
7296;DHT22;40758;54.038;11.684;2022-10-28T16:11:45;17.80;99.90
7296;DHT22;40758;54.038;11.684;2022-10-28T16:14:27;17.70;99.90
7296;DHT22;40758;54.038;11.684;2022-10-28T16:17:13;17.70;99.90
7296;DHT22;40758;54.038;11.684;2022-10-28T16:19:49;17.60;99.90
7296;DHT22;40758;54.038;11.684;2022-10-28T16:22:21;17.60;99.90
7296;DHT22;40758;54.038;11.684;2022-10-28T16:24:54;17.60;99.90
7296;DHT22;40758;54.038;11.684;2022-10-28T16:27:25;17.60;99.90
7296;DHT22;40758;54.038;11.684;2022-10-28T16:29:55;17.60;99.90
7296;DHT22;40758;54.038;11.684;2022-10-28T16:32:26;17.60;99.90
7296;DHT22;40758;54.038;11.684;2022-10-28T16:35:01;17.50;99.90
7296;DHT22;40758;54.038;11.684;2022-10-28T16:37:31;17.50;99.90
7296;DHT22;40758;54.038;11.684;2022-10-28T16:40:08;17.50;99.90
7296;DHT22;40758;54.038;11.684;2022-10-28T16:42:58;17.50;99.90
7296;DHT22;40758;54.038;11.684;2022-10-28T16:45:27;17.60;99.90
7296;DHT22;40758;54.038;11.684;2022-10-28T16:47:56;17.50;99.90
7296;DHT22;40758;54.038;11.684;2022-10-28T16:50:25;17.50;99.90
7296;DHT22;40758;54.038;11.684;2022-10-28T16:52:54;17.40;99.90
7296;DHT22;40758;54.038;11.684;2022-10-28T16:55:28;17.40;99.90
7296;DHT22;40758;54.038;11.684;2022-10-28T16:58:02;17.30;99.90
7296;DHT22;40758;54.038;11.684;2022-10-28T17:00:31;17.20;99.90